New Windsor, NY (12553)

11:14 PM EDT on July 24, 2016 (GMT -0400)
Mt Airy Road | | Change Station
Active Advisory: Heat Advisory Active Notice: Record Report

Elev 404 ft 41.45 °N, 74.08 °W | Updated 4 minutes ago

Scattered Clouds
Scattered Clouds
77.0 °F
Feels Like 79 °F
N
0.0
Wind Variable Wind from SE
Gusts 0.0 mph

Today
High -- | Low -- °F
--% Chance of Precip.
Yesterday
High -- | Low -- °F
Precip. -- in
Pressure 29.99 in
Visibility 10.0 miles
Clouds Scattered Clouds 10000 ft
Heat Index 79 °F
Dew Point 68 °F
Humidity 75%
Rainfall 0.00 in
Snow Depth Not available.
5:43 AM 8:21 PM
Waning Gibbous, 70% visible
METAR KSWF 250245Z VRB04KT 10SM SCT100 27/18 A2999
Pressure 29.99 in
Visibility 10.0 miles
Clouds Scattered Clouds 10000 ft
Heat Index 79 °F
Dew Point 68 °F
Humidity 75%
Rainfall 0.00 in
Snow Depth Not available.
5:43 AM 8:21 PM
Waning Gibbous, 70% visible
METAR KSWF 250245Z VRB04KT 10SM SCT100 27/18 A2999

10-Day Weather Forecast

Almanac

Astronomy

Jul. 24, 2016 Rise Set
Actual Time
Civil Twilight
Nautical Twilight
Astronomical Twilight
Moon
Length of Visible Light
Length of Day
Tomorrow will be .
, % of the Moon is Illuminated

Today's Extremes

State Highs State Lows

Community

WunderPhotos

Upload Photos

1,927,253 photos uploaded!

WunderBlog® & News

Nearby

Air Quality

  Air Quality AQ Index Pollutant
Not available.

Snow Depth

Station Depth Elevation

Earthquake Activity

City Distance Mag. Time & Date
Minimum magnitude displayed is 2.5.

Coastal Water Temperatures

Place Temperature

Stations

Nearby Weather Stations

Station Location Temp. Windchill Dew Point Humidity Wind Precip. Elev Updated Type
                   

Watches & Warnings

Heat Advisory
Issued: 6:17 PM EDT Jul. 24, 2016 – National Weather Service

... Heat advisory remains in effect from noon to 8 PM EDT Monday...

* heat index values... around 100 due to temperatures near 90...
and dewpoints in the lower 70s.

* Timing... highest heat indices Monday afternoon.

* Impacts... the combination of the heat and humidity will
increase the risk for heat related health issues... especially
for the elderly... those with chronic health problems such as
lung and heart disease... those working outdoors... and other
heat sensitive groups of people.

Precautionary/preparedness actions...

A heat advisory is issued when the combination of heat and
humidity is expected to make it feel like it is 100 to
104 degrees for two consecutive hours.

To reduce risk during outdoor work the occupational safety and
health administration recommends scheduling frequent rest breaks
in shaded or air conditioned environments. Anyone overcome by
heat should be moved to a cool and shaded location. Heat stroke
is an emergency... call 9 1 1.